sensor_id;sensor_type;location;lat;lon;timestamp;pressure;altitude;pressure_sealevel;temperature;humidity
49585;BME280;35491;49.142;9.210;2023-03-21T01:07:27;100080.44;;;10.54;60.39
49585;BME280;35491;49.142;9.210;2023-03-21T01:51:06;100045.91;;;10.70;61.00
49585;BME280;35491;49.142;9.210;2023-03-21T01:52:11;100049.03;;;10.66;61.01
49585;BME280;35491;49.142;9.210;2023-03-21T03:34:17;100010.25;;;10.32;63.19
49585;BME280;35491;49.142;9.210;2023-03-21T15:07:26;99691.47;;;16.17;44.78
49585;BME280;35491;49.142;9.210;2023-03-21T15:08:31;99695.75;;;16.12;45.03
49585;BME280;35491;49.142;9.210;2023-03-21T15:09:54;99693.53;;;16.15;44.80
49585;BME280;35491;49.142;9.210;2023-03-21T15:11:01;99691.16;;;16.05;44.67
49585;BME280;35491;49.142;9.210;2023-03-21T15:12:06;99687.03;;;15.80;44.96
49585;BME280;35491;49.142;9.210;2023-03-21T15:13:13;99692.44;;;15.80;44.88
49585;BME280;35491;49.142;9.210;2023-03-21T15:14:17;99693.22;;;15.88;44.88
49585;BME280;35491;49.142;9.210;2023-03-21T15:15:22;99688.06;;;15.94;45.01
49585;BME280;35491;49.142;9.210;2023-03-21T15:16:27;99680.56;;;15.89;45.11
49585;BME280;35491;49.142;9.210;2023-03-21T15:17:29;99693.00;;;15.90;45.26
49585;BME280;35491;49.142;9.210;2023-03-21T15:18:33;99684.91;;;15.75;45.58
49585;BME280;35491;49.142;9.210;2023-03-21T15:19:38;99688.47;;;15.60;45.85
49585;BME280;35491;49.142;9.210;2023-03-21T15:39:23;99684.75;;;15.92;45.29
49585;BME280;35491;49.142;9.210;2023-03-21T15:40:51;99686.88;;;15.96;45.15
49585;BME280;35491;49.142;9.210;2023-03-21T15:42:31;99688.53;;;15.97;45.17
49585;BME280;35491;49.142;9.210;2023-03-21T15:43:36;99682.22;;;15.90;45.63
49585;BME280;35491;49.142;9.210;2023-03-21T15:44:44;99689.03;;;15.86;45.54
49585;BME280;35491;49.142;9.210;2023-03-21T15:45:50;99687.44;;;15.77;45.80
49585;BME280;35491;49.142;9.210;2023-03-21T15:46:54;99677.84;;;15.74;45.74
49585;BME280;35491;49.142;9.210;2023-03-21T15:48:08;99681.84;;;15.78;46.09
49585;BME280;35491;49.142;9.210;2023-03-21T15:49:24;99669.75;;;15.74;46.19
49585;BME280;35491;49.142;9.210;2023-03-21T15:50:27;99685.09;;;15.73;45.80
49585;BME280;35491;49.142;9.210;2023-03-21T15:53:16;99682.88;;;15.62;45.88
49585;BME280;35491;49.142;9.210;2023-03-21T15:54:24;99683.81;;;15.54;45.95
49585;BME280;35491;49.142;9.210;2023-03-21T15:55:27;99684.75;;;15.47;46.51
49585;BME280;35491;49.142;9.210;2023-03-21T15:56:36;99695.63;;;15.38;46.80
49585;BME280;35491;49.142;9.210;2023-03-21T15:57:42;99691.91;;;15.39;46.36
49585;BME280;35491;49.142;9.210;2023-03-21T15:58:51;99695.88;;;15.43;46.57
49585;BME280;35491;49.142;9.210;2023-03-21T15:59:53;99685.13;;;15.43;46.64
49585;BME280;35491;49.142;9.210;2023-03-21T16:00:59;99688.94;;;15.49;46.38
49585;BME280;35491;49.142;9.210;2023-03-21T16:02:02;99683.81;;;15.54;46.31
49585;BME280;35491;49.142;9.210;2023-03-21T16:03:09;99685.94;;;15.59;46.43
49585;BME280;35491;49.142;9.210;2023-03-21T16:04:21;99686.03;;;15.66;46.06
49585;BME280;35491;49.142;9.210;2023-03-21T16:05:34;99679.25;;;15.70;46.07
49585;BME280;35491;49.142;9.210;2023-03-21T16:06:49;99683.44;;;15.72;46.09
49585;BME280;35491;49.142;9.210;2023-03-21T16:07:58;99673.97;;;15.77;45.52
49585;BME280;35491;49.142;9.210;2023-03-21T16:09:03;99682.06;;;15.77;45.70
49585;BME280;35491;49.142;9.210;2023-03-21T16:10:24;99678.50;;;15.76;45.79
49585;BME280;35491;49.142;9.210;2023-03-21T16:11:38;99676.38;;;15.71;45.73
49585;BME280;35491;49.142;9.210;2023-03-21T16:12:44;99672.75;;;15.64;45.90
49585;BME280;35491;49.142;9.210;2023-03-21T16:13:53;99671.28;;;15.62;45.96
49585;BME280;35491;49.142;9.210;2023-03-21T16:15:01;99672.09;;;15.62;45.87
49585;BME280;35491;49.142;9.210;2023-03-21T16:16:02;99666.72;;;15.62;46.16
49585;BME280;35491;49.142;9.210;2023-03-21T16:17:12;99660.88;;;15.58;46.10
49585;BME280;35491;49.142;9.210;2023-03-21T16:18:37;99662.75;;;15.58;46.03
49585;BME280;35491;49.142;9.210;2023-03-21T16:19:50;99661.69;;;15.59;46.37
49585;BME280;35491;49.142;9.210;2023-03-21T16:21:08;99655.28;;;15.60;46.33
49585;BME280;35491;49.142;9.210;2023-03-21T16:22:14;99661.53;;;15.60;46.09
49585;BME280;35491;49.142;9.210;2023-03-21T16:23:19;99663.38;;;15.60;46.11
49585;BME280;35491;49.142;9.210;2023-03-21T16:25:40;99656.81;;;15.48;46.48
49585;BME280;35491;49.142;9.210;2023-03-21T16:26:42;99657.81;;;15.47;46.43
49585;BME280;35491;49.142;9.210;2023-03-21T16:28:08;99653.72;;;15.51;46.42
49585;BME280;35491;49.142;9.210;2023-03-21T16:29:13;99659.41;;;15.56;46.39
49585;BME280;35491;49.142;9.210;2023-03-21T16:30:28;99652.97;;;15.57;46.37
49585;BME280;35491;49.142;9.210;2023-03-21T16:31:32;99654.25;;;15.61;46.10
49585;BME280;35491;49.142;9.210;2023-03-21T16:32:34;99663.66;;;15.65;46.15
49585;BME280;35491;49.142;9.210;2023-03-21T16:33:38;99658.28;;;15.65;45.86
49585;BME280;35491;49.142;9.210;2023-03-21T16:34:39;99660.09;;;15.65;46.00
49585;BME280;35491;49.142;9.210;2023-03-21T16:35:44;99659.66;;;15.61;46.26
49585;BME280;35491;49.142;9.210;2023-03-21T16:36:48;99656.31;;;15.59;46.18
49585;BME280;35491;49.142;9.210;2023-03-21T16:37:52;99655.84;;;15.55;46.12
49585;BME280;35491;49.142;9.210;2023-03-21T16:38:54;99655.03;;;15.55;46.45
49585;BME280;35491;49.142;9.210;2023-03-21T16:39:58;99648.63;;;15.56;46.35
49585;BME280;35491;49.142;9.210;2023-03-21T16:41:01;99647.59;;;15.57;46.09
49585;BME280;35491;49.142;9.210;2023-03-21T16:42:05;99649.28;;;15.58;46.31
49585;BME280;35491;49.142;9.210;2023-03-21T16:43:06;99650.09;;;15.58;46.26
49585;BME280;35491;49.142;9.210;2023-03-21T16:44:10;99645.91;;;15.56;46.20
49585;BME280;35491;49.142;9.210;2023-03-21T16:45:11;99640.25;;;15.51;46.17
49585;BME280;35491;49.142;9.210;2023-03-21T16:46:16;99639.22;;;15.52;46.25
49585;BME280;35491;49.142;9.210;2023-03-21T16:47:20;99647.69;;;15.49;45.99
49585;BME280;35491;49.142;9.210;2023-03-21T16:48:23;99647.50;;;15.50;45.98
49585;BME280;35491;49.142;9.210;2023-03-21T16:49:27;99646.47;;;15.51;46.15
49585;BME280;35491;49.142;9.210;2023-03-21T16:50:52;99653.53;;;15.52;45.93
49585;BME280;35491;49.142;9.210;2023-03-21T16:51:56;99650.84;;;15.52;45.96
49585;BME280;35491;49.142;9.210;2023-03-21T16:52:58;99655.03;;;15.55;45.90
49585;BME280;35491;49.142;9.210;2023-03-21T16:54:03;99651.66;;;15.53;46.31
49585;BME280;35491;49.142;9.210;2023-03-21T16:55:06;99659.50;;;15.48;46.21
49585;BME280;35491;49.142;9.210;2023-03-21T16:56:15;99657.44;;;15.50;46.21
49585;BME280;35491;49.142;9.210;2023-03-21T16:57:21;99658.19;;;15.43;46.55
49585;BME280;35491;49.142;9.210;2023-03-21T16:58:27;99666.81;;;15.39;46.80
49585;BME280;35491;49.142;9.210;2023-03-21T16:59:31;99671.53;;;15.37;46.60
49585;BME280;35491;49.142;9.210;2023-03-21T17:00:34;99662.00;;;15.34;46.59
49585;BME280;35491;49.142;9.210;2023-03-21T17:01:39;99666.72;;;15.32;46.92
49585;BME280;35491;49.142;9.210;2023-03-21T17:02:41;99668.47;;;15.25;46.96
49585;BME280;35491;49.142;9.210;2023-03-21T17:03:45;99672.59;;;15.21;46.91
49585;BME280;35491;49.142;9.210;2023-03-21T17:04:46;99663.19;;;15.17;47.39
49585;BME280;35491;49.142;9.210;2023-03-21T17:05:50;99670.91;;;15.20;47.26
49585;BME280;35491;49.142;9.210;2023-03-21T17:06:59;99670.50;;;15.23;47.29
49585;BME280;35491;49.142;9.210;2023-03-21T17:08:01;99673.50;;;15.28;47.29
49585;BME280;35491;49.142;9.210;2023-03-21T17:09:06;99670.63;;;15.29;47.36
49585;BME280;35491;49.142;9.210;2023-03-21T17:10:11;99665.69;;;15.33;47.34
49585;BME280;35491;49.142;9.210;2023-03-21T17:11:19;99669.06;;;15.35;47.04
49585;BME280;35491;49.142;9.210;2023-03-21T17:12:24;99669.88;;;15.36;47.12
49585;BME280;35491;49.142;9.210;2023-03-21T17:13:25;99666.56;;;15.34;47.29
49585;BME280;35491;49.142;9.210;2023-03-21T17:14:28;99668.59;;;15.32;47.29
49585;BME280;35491;49.142;9.210;2023-03-21T17:15:32;99667.72;;;15.31;47.54
49585;BME280;35491;49.142;9.210;2023-03-21T17:16:36;99662.53;;;15.29;47.34
49585;BME280;35491;49.142;9.210;2023-03-21T17:17:39;99660.69;;;15.30;47.49
49585;BME280;35491;49.142;9.210;2023-03-21T17:18:43;99661.97;;;15.19;47.59
49585;BME280;35491;49.142;9.210;2023-03-21T17:19:44;99667.81;;;15.23;47.60
49585;BME280;35491;49.142;9.210;2023-03-21T17:20:48;99666.53;;;15.19;47.87
49585;BME280;35491;49.142;9.210;2023-03-21T17:21:52;99666.16;;;15.22;47.92
49585;BME280;35491;49.142;9.210;2023-03-21T17:22:57;99671.19;;;15.25;47.55
49585;BME280;35491;49.142;9.210;2023-03-21T17:24:00;99673.75;;;15.18;47.80
49585;BME280;35491;49.142;9.210;2023-03-21T17:25:04;99663.00;;;15.18;47.61
49585;BME280;35491;49.142;9.210;2023-03-21T17:26:28;99663.19;;;15.17;47.77
49585;BME280;35491;49.142;9.210;2023-03-21T17:27:34;99659.19;;;15.12;48.05
49585;BME280;35491;49.142;9.210;2023-03-21T17:28:35;99664.56;;;15.12;47.77
49585;BME280;35491;49.142;9.210;2023-03-21T17:29:39;99664.09;;;15.09;48.10
49585;BME280;35491;49.142;9.210;2023-03-21T17:30:40;99660.38;;;15.10;48.05
49585;BME280;35491;49.142;9.210;2023-03-21T17:31:44;99669.94;;;15.12;47.93
49585;BME280;35491;49.142;9.210;2023-03-21T17:32:47;99674.50;;;15.12;48.09
49585;BME280;35491;49.142;9.210;2023-03-21T17:33:52;99671.63;;;15.13;48.00
49585;BME280;35491;49.142;9.210;2023-03-21T17:34:53;99670.97;;;15.11;48.40
49585;BME280;35491;49.142;9.210;2023-03-21T17:36:02;99657.50;;;15.11;48.48
49585;BME280;35491;49.142;9.210;2023-03-21T17:37:07;99666.63;;;15.10;48.18
49585;BME280;35491;49.142;9.210;2023-03-21T17:38:14;99664.56;;;15.12;48.36
49585;BME280;35491;49.142;9.210;2023-03-21T17:39:19;99671.81;;;15.12;48.78
49585;BME280;35491;49.142;9.210;2023-03-21T17:40:24;99667.09;;;15.14;48.75
49585;BME280;35491;49.142;9.210;2023-03-21T17:41:27;99668.94;;;15.13;48.77
49585;BME280;35491;49.142;9.210;2023-03-21T17:42:31;99673.28;;;15.15;48.84
49585;BME280;35491;49.142;9.210;2023-03-21T17:43:35;99674.97;;;15.16;49.44
49585;BME280;35491;49.142;9.210;2023-03-21T17:44:38;99674.97;;;15.16;49.26
49585;BME280;35491;49.142;9.210;2023-03-21T17:45:42;99677.31;;;15.19;48.71
49585;BME280;35491;49.142;9.210;2023-03-21T17:46:46;99679.81;;;15.20;48.82
49585;BME280;35491;49.142;9.210;2023-03-21T17:47:47;99674.63;;;15.19;49.15
49585;BME280;35491;49.142;9.210;2023-03-21T17:48:51;99677.13;;;15.20;49.00
49585;BME280;35491;49.142;9.210;2023-03-21T17:49:54;99677.78;;;15.22;48.94
49585;BME280;35491;49.142;9.210;2023-03-21T17:50:57;99674.63;;;15.19;49.43
49585;BME280;35491;49.142;9.210;2023-03-21T17:51:59;99678.22;;;15.11;50.12
49585;BME280;35491;49.142;9.210;2023-03-21T17:53:02;99683.41;;;15.12;49.62
49585;BME280;35491;49.142;9.210;2023-03-21T17:54:04;99681.94;;;15.10;49.84
49585;BME280;35491;49.142;9.210;2023-03-21T17:55:09;99682.13;;;15.08;49.91
49585;BME280;35491;49.142;9.210;2023-03-21T17:56:11;99683.59;;;15.11;49.71
49585;BME280;35491;49.142;9.210;2023-03-21T17:57:16;99683.78;;;15.09;49.83
49585;BME280;35491;49.142;9.210;2023-03-21T17:58:17;99684.41;;;15.11;49.88
49585;BME280;35491;49.142;9.210;2023-03-21T17:59:24;99682.13;;;15.08;50.17
49585;BME280;35491;49.142;9.210;2023-03-21T18:00:28;99683.41;;;15.12;49.82
49585;BME280;35491;49.142;9.210;2023-03-21T18:01:30;99682.13;;;15.08;50.30
49585;BME280;35491;49.142;9.210;2023-03-21T18:02:34;99683.88;;;15.01;50.17
49585;BME280;35491;49.142;9.210;2023-03-21T18:03:37;99683.22;;;14.99;50.55
49585;BME280;35491;49.142;9.210;2023-03-21T18:04:40;99682.56;;;14.97;50.39
49585;BME280;35491;49.142;9.210;2023-03-21T18:05:47;99682.91;;;14.94;50.71
49585;BME280;35491;49.142;9.210;2023-03-21T18:06:51;99677.91;;;14.91;50.80
49585;BME280;35491;49.142;9.210;2023-03-21T18:07:53;99681.50;;;14.83;51.08
49585;BME280;35491;49.142;9.210;2023-03-21T18:08:57;99679.00;;;14.81;51.19
49585;BME280;35491;49.142;9.210;2023-03-21T18:09:58;99679.34;;;14.78;51.68
49585;BME280;35491;49.142;9.210;2023-03-21T18:11:03;99676.38;;;14.73;51.67
49585;BME280;35491;49.142;9.210;2023-03-21T18:12:08;99665.63;;;14.73;52.04
49585;BME280;35491;49.142;9.210;2023-03-21T18:13:09;99662.28;;;14.71;52.00
49585;BME280;35491;49.142;9.210;2023-03-21T18:14:14;99661.66;;;14.61;52.41
49585;BME280;35491;49.142;9.210;2023-03-21T18:15:18;99658.09;;;14.60;52.53
49585;BME280;35491;49.142;9.210;2023-03-21T18:16:22;99666.56;;;14.57;52.57
49585;BME280;35491;49.142;9.210;2023-03-21T18:17:23;99676.84;;;14.54;53.04
49585;BME280;35491;49.142;9.210;2023-03-21T18:18:27;99671.28;;;14.55;52.80
49585;BME280;35491;49.142;9.210;2023-03-21T18:19:28;99666.72;;;14.56;52.58
49585;BME280;35491;49.142;9.210;2023-03-21T18:20:33;99675.50;;;14.49;52.92
49585;BME280;35491;49.142;9.210;2023-03-21T18:21:37;99672.16;;;14.47;52.98
49585;BME280;35491;49.142;9.210;2023-03-21T18:22:40;99669.19;;;14.42;53.73
49585;BME280;35491;49.142;9.210;2023-03-21T18:23:44;99672.88;;;14.41;53.77
49585;BME280;35491;49.142;9.210;2023-03-21T18:24:45;99674.56;;;14.42;53.66
49585;BME280;35491;49.142;9.210;2023-03-21T18:25:54;99679.75;;;14.44;53.68
49585;BME280;35491;49.142;9.210;2023-03-21T18:27:00;99683.09;;;14.46;53.68
49585;BME280;35491;49.142;9.210;2023-03-21T18:28:04;99685.31;;;14.42;54.49
49585;BME280;35491;49.142;9.210;2023-03-21T18:29:05;99684.94;;;14.45;54.27
49585;BME280;35491;49.142;9.210;2023-03-21T18:30:12;99692.66;;;14.48;54.21
49585;BME280;35491;49.142;9.210;2023-03-21T18:31:18;99682.56;;;14.50;54.13
49585;BME280;35491;49.142;9.210;2023-03-21T18:32:22;99689.28;;;14.55;53.66
49585;BME280;35491;49.142;9.210;2023-03-21T18:33:25;99687.59;;;14.54;54.10
49585;BME280;35491;49.142;9.210;2023-03-21T18:34:29;99690.09;;;14.55;54.08
49585;BME280;35491;49.142;9.210;2023-03-21T18:35:33;99686.09;;;14.51;54.58
49585;BME280;35491;49.142;9.210;2023-03-21T18:36:37;99680.41;;;14.46;55.12
49585;BME280;35491;49.142;9.210;2023-03-21T18:37:48;99684.00;;;14.38;55.10
49585;BME280;35491;49.142;9.210;2023-03-21T18:39:06;99680.63;;;14.36;55.59
49585;BME280;35491;49.142;9.210;2023-03-21T18:40:24;99676.94;;;14.37;55.33
49585;BME280;35491;49.142;9.210;2023-03-21T18:41:28;99671.47;;;14.30;55.71
49585;BME280;35491;49.142;9.210;2023-03-21T18:42:30;99672.47;;;14.29;55.48
49585;BME280;35491;49.142;9.210;2023-03-21T18:43:34;99670.31;;;14.25;56.59
49585;BME280;35491;49.142;9.210;2023-03-21T18:44:36;99671.63;;;14.29;55.87
49585;BME280;35491;49.142;9.210;2023-03-21T18:45:39;99672.16;;;14.24;55.68
49585;BME280;35491;49.142;9.210;2023-03-21T18:46:46;99670.31;;;14.25;55.68
49585;BME280;35491;49.142;9.210;2023-03-21T18:47:50;99675.31;;;14.28;55.31
49585;BME280;35491;49.142;9.210;2023-03-21T18:48:54;99677.66;;;14.31;55.71
49585;BME280;35491;49.142;9.210;2023-03-21T18:49:56;99674.78;;;14.32;55.66
49585;BME280;35491;49.142;9.210;2023-03-21T18:51:00;99681.84;;;14.33;55.68
49585;BME280;35491;49.142;9.210;2023-03-21T18:52:02;99675.25;;;14.36;55.53
49585;BME280;35491;49.142;9.210;2023-03-21T18:53:35;99687.34;;;14.40;55.65
49585;BME280;35491;49.142;9.210;2023-03-21T18:54:39;99696.22;;;14.41;55.75
49585;BME280;35491;49.142;9.210;2023-03-21T18:55:42;99688.16;;;14.41;55.63
49585;BME280;35491;49.142;9.210;2023-03-21T18:56:46;99694.41;;;14.41;55.59
49585;BME280;35491;49.142;9.210;2023-03-21T18:57:51;99690.69;;;14.42;55.69
49585;BME280;35491;49.142;9.210;2023-03-21T18:58:55;99692.38;;;14.43;55.41
49585;BME280;35491;49.142;9.210;2023-03-21T18:59:56;99695.69;;;14.45;55.48
49585;BME280;35491;49.142;9.210;2023-03-21T19:01:00;99699.25;;;14.46;55.39
49585;BME280;35491;49.142;9.210;2023-03-21T19:02:04;99695.69;;;14.45;55.59
49585;BME280;35491;49.142;9.210;2023-03-21T19:03:08;99700.91;;;14.47;55.65
49585;BME280;35491;49.142;9.210;2023-03-21T19:04:11;99697.38;;;14.46;56.18
49585;BME280;35491;49.142;9.210;2023-03-21T19:05:15;99695.94;;;14.35;57.00
49585;BME280;35491;49.142;9.210;2023-03-21T19:06:27;99702.53;;;14.33;56.45
49585;BME280;35491;49.142;9.210;2023-03-21T19:07:42;99695.16;;;14.27;56.73
49585;BME280;35491;49.142;9.210;2023-03-21T19:08:46;99695.28;;;14.33;56.34
49585;BME280;35491;49.142;9.210;2023-03-21T19:09:50;99697.81;;;14.35;56.58
49585;BME280;35491;49.142;9.210;2023-03-21T19:10:57;99687.88;;;14.35;56.37
49585;BME280;35491;49.142;9.210;2023-03-21T19:11:59;99691.28;;;14.29;56.92
49585;BME280;35491;49.142;9.210;2023-03-21T19:13:03;99693.22;;;14.12;57.89
49585;BME280;35491;49.142;9.210;2023-03-21T19:14:07;99685.16;;;14.12;57.71
49585;BME280;35491;49.142;9.210;2023-03-21T19:15:09;99693.28;;;14.04;58.65
49585;BME280;35491;49.142;9.210;2023-03-21T19:16:13;99687.41;;;14.00;58.39
49585;BME280;35491;49.142;9.210;2023-03-21T19:17:17;99687.28;;;13.94;58.45
49585;BME280;35491;49.142;9.210;2023-03-21T19:18:21;99683.78;;;13.93;58.82
49585;BME280;35491;49.142;9.210;2023-03-21T19:19:26;99685.56;;;14.01;58.23
49585;BME280;35491;49.142;9.210;2023-03-21T19:20:30;99682.34;;;14.06;58.17
49585;BME280;35491;49.142;9.210;2023-03-21T19:21:37;99683.25;;;13.98;58.46
49585;BME280;35491;49.142;9.210;2023-03-21T19:22:38;99687.75;;;13.97;58.61
49585;BME280;35491;49.142;9.210;2023-03-21T19:23:43;99683.78;;;13.93;58.92
49585;BME280;35491;49.142;9.210;2023-03-21T19:24:44;99682.19;;;13.99;58.59
49585;BME280;35491;49.142;9.210;2023-03-21T19:25:48;99680.56;;;13.98;58.29
49585;BME280;35491;49.142;9.210;2023-03-21T19:26:49;99680.22;;;13.93;58.62
49585;BME280;35491;49.142;9.210;2023-03-21T19:27:54;99681.44;;;13.90;58.76
49585;BME280;35491;49.142;9.210;2023-03-21T19:28:57;99681.25;;;13.92;58.75
49585;BME280;35491;49.142;9.210;2023-03-21T19:30:00;99678.88;;;13.97;58.48
49585;BME280;35491;49.142;9.210;2023-03-21T19:31:04;99674.50;;;13.96;58.60
49585;BME280;35491;49.142;9.210;2023-03-21T19:32:07;99678.22;;;13.95;58.56
49585;BME280;35491;49.142;9.210;2023-03-21T19:33:14;99670.63;;;13.98;58.09
49585;BME280;35491;49.142;9.210;2023-03-21T19:34:17;99677.69;;;13.99;58.10
49585;BME280;35491;49.142;9.210;2023-03-21T19:35:21;99666.75;;;14.01;58.23
49585;BME280;35491;49.142;9.210;2023-03-21T19:37:34;99678.56;;;13.92;58.54
49585;BME280;35491;49.142;9.210;2023-03-21T19:43:32;99688.47;;;13.91;58.10
49585;BME280;35491;49.142;9.210;2023-03-21T19:48:28;99694.75;;;13.75;58.65
49585;BME280;35491;49.142;9.210;2023-03-21T19:49:32;99691.25;;;13.66;59.41
49585;BME280;35491;49.142;9.210;2023-03-21T19:53:19;99689.72;;;13.72;58.96
49585;BME280;35491;49.142;9.210;2023-03-21T19:54:23;99690.06;;;13.77;58.70
49585;BME280;35491;49.142;9.210;2023-03-21T19:55:25;99681.47;;;13.82;58.50
49585;BME280;35491;49.142;9.210;2023-03-21T19:56:30;99680.63;;;13.81;58.33
49585;BME280;35491;49.142;9.210;2023-03-21T19:57:36;99678.59;;;13.83;58.25
49585;BME280;35491;49.142;9.210;2023-03-21T19:58:37;99691.03;;;13.84;58.47
49585;BME280;35491;49.142;9.210;2023-03-21T19:59:54;99688.34;;;13.84;58.64
49585;BME280;35491;49.142;9.210;2023-03-21T20:02:44;99688.34;;;13.84;58.72
49585;BME280;35491;49.142;9.210;2023-03-21T20:03:51;99692.41;;;13.72;59.49
49585;BME280;35491;49.142;9.210;2023-03-21T20:04:55;99698.81;;;13.63;59.83
49585;BME280;35491;49.142;9.210;2023-03-21T20:06:20;99693.47;;;13.54;60.03
49585;BME280;35491;49.142;9.210;2023-03-21T20:07:29;99700.56;;;13.47;60.11
49585;BME280;35491;49.142;9.210;2023-03-21T20:08:51;99696.19;;;13.46;60.43
49585;BME280;35491;49.142;9.210;2023-03-21T20:09:59;99697.00;;;13.47;60.03
49585;BME280;35491;49.142;9.210;2023-03-21T20:11:04;99698.53;;;13.49;60.03
49585;BME280;35491;49.142;9.210;2023-03-21T20:12:09;99701.56;;;13.46;60.30
49585;BME280;35491;49.142;9.210;2023-03-21T20:13:14;99699.38;;;13.41;60.35
49585;BME280;35491;49.142;9.210;2023-03-21T20:14:40;99705.44;;;13.44;60.52
49585;BME280;35491;49.142;9.210;2023-03-21T20:15:57;99710.31;;;13.40;60.76
49585;BME280;35491;49.142;9.210;2023-03-21T20:17:03;99700.56;;;13.39;60.60
49585;BME280;35491;49.142;9.210;2023-03-21T20:18:15;99692.66;;;13.37;60.46
49585;BME280;35491;49.142;9.210;2023-03-21T20:19:41;99702.91;;;13.34;60.65
49585;BME280;35491;49.142;9.210;2023-03-21T20:20:47;99697.88;;;13.31;61.11
49585;BME280;35491;49.142;9.210;2023-03-21T20:23:35;99701.91;;;13.43;60.43
49585;BME280;35491;49.142;9.210;2023-03-21T20:24:39;99697.38;;;13.44;60.50
49585;BME280;35491;49.142;9.210;2023-03-21T20:25:43;99696.03;;;13.39;60.66
49585;BME280;35491;49.142;9.210;2023-03-21T20:26:50;99693.84;;;13.43;60.42
49585;BME280;35491;49.142;9.210;2023-03-21T20:27:56;99698.06;;;13.46;60.13
49585;BME280;35491;49.142;9.210;2023-03-21T20:29:06;99706.59;;;13.49;59.73
49585;BME280;35491;49.142;9.210;2023-03-21T20:33:42;99705.91;;;13.55;59.70
49585;BME280;35491;49.142;9.210;2023-03-21T20:34:50;99698.66;;;13.56;59.85
49585;BME280;35491;49.142;9.210;2023-03-21T20:35:55;99705.56;;;13.59;59.55
49585;BME280;35491;49.142;9.210;2023-03-21T20:37:26;99714.09;;;13.62;59.52
49585;BME280;35491;49.142;9.210;2023-03-21T20:39:00;99715.59;;;13.65;59.44
49585;BME280;35491;49.142;9.210;2023-03-21T20:40:05;99712.91;;;13.65;59.59
49585;BME280;35491;49.142;9.210;2023-03-21T20:41:08;99719.28;;;13.64;59.40
49585;BME280;35491;49.142;9.210;2023-03-21T20:42:19;99720.16;;;13.64;59.58
49585;BME280;35491;49.142;9.210;2023-03-21T20:45:35;99715.41;;;13.66;59.39
49585;BME280;35491;49.142;9.210;2023-03-21T23:08:12;99713.47;;;12.28;65.33
49585;BME280;35491;49.142;9.210;2023-03-21T23:09:15;99718.13;;;12.26;65.49
49585;BME280;35491;49.142;9.210;2023-03-21T23:10:18;99720.66;;;12.27;65.43
49585;BME280;35491;49.142;9.210;2023-03-21T23:11:22;99716.31;;;12.26;65.48
49585;BME280;35491;49.142;9.210;2023-03-21T23:18:46;99724.16;;;12.20;65.95
